Time;durP1;ratioP1;P1;durP2;ratioP2;P2;SDS_P1;SDS_P2;PMS_P1;PMS_P2;Temp;Humidity;BMP_temperature;BMP_pressure;BME280_temperature;BME280_humidity;BME280_pressure;Samples;Min_cycle;Max_cycle;Signal;HPM_P1;HPM_P2
2024/02/26 00:01:07;;;;;;;11.70;7.17;;;;;;;2.24;100.00;99826.94;5033179;28;20448;-72
2024/02/26 00:03:35;;;;;;;12.60;6.73;;;;;;;2.44;100.00;99854.66;5032436;28;20191;-71
2024/02/26 00:06:02;;;;;;;10.77;6.43;;;;;;;2.56;100.00;99886.06;5019487;28;20189;-71
2024/02/26 00:08:27;;;;;;;9.77;6.37;;;;;;;3.03;100.00;99956.75;5017444;28;20851;-72
2024/02/26 00:10:53;;;;;;;10.37;7.03;;;;;;;2.53;100.00;99887.22;5009557;28;20435;-72
2024/02/26 00:13:20;;;;;;;9.67;6.13;;;;;;;3.02;100.00;99960.41;5038373;28;20725;-72
2024/02/26 00:15:45;;;;;;;9.60;6.13;;;;;;;3.28;100.00;100011.31;5011020;28;20648;-72
2024/02/26 00:18:11;;;;;;;9.80;6.00;;;;;;;3.13;100.00;99950.25;5028678;28;20447;-72
2024/02/26 00:20:36;;;;;;;9.50;6.20;;;;;;;2.43;100.00;99839.78;5029395;28;20561;-72
2024/02/26 00:23:02;;;;;;;9.60;6.40;;;;;;;2.56;100.00;99856.94;5020219;28;20187;-71
2024/02/26 00:25:27;;;;;;;10.37;6.50;;;;;;;2.38;100.00;99865.09;5031697;28;20184;-71
2024/02/26 00:27:53;;;;;;;11.33;6.17;;;;;;;2.56;100.00;99909.88;5030678;28;20208;-72
2024/02/26 00:30:19;;;;;;;10.63;6.27;;;;;;;3.07;100.00;99943.00;5015815;28;20660;-72
2024/02/26 00:32:45;;;;;;;9.67;5.90;;;;;;;2.71;100.00;99905.53;5036909;28;20430;-72
2024/02/26 00:35:10;;;;;;;8.93;5.77;;;;;;;3.51;100.00;100039.72;5030394;28;20191;-72
2024/02/26 00:37:36;;;;;;;11.00;5.90;;;;;;;3.10;100.00;99947.13;5030005;28;20218;-72
2024/02/26 00:40:01;;;;;;;8.77;5.60;;;;;;;2.26;100.00;99832.88;5013682;28;20211;-71
2024/02/26 00:42:27;;;;;;;8.90;5.87;;;;;;;2.53;100.00;99884.56;5012989;28;20206;-71
2024/02/26 00:44:52;;;;;;;9.53;6.00;;;;;;;3.03;100.00;99914.34;5015653;28;20185;-71
2024/02/26 00:47:17;;;;;;;8.33;5.10;;;;;;;2.73;100.00;99914.13;5036423;28;20186;-72
2024/02/26 00:49:43;;;;;;;9.13;6.00;;;;;;;2.76;100.00;99902.38;5035765;28;20199;-72
2024/02/26 00:52:08;;;;;;;8.60;5.37;;;;;;;2.59;100.00;99853.94;5031259;28;20192;-72
2024/02/26 00:54:34;;;;;;;7.63;5.33;;;;;;;3.08;100.00;99941.97;5033998;28;20196;-72
2024/02/26 00:56:59;;;;;;;8.60;5.93;;;;;;;2.59;100.00;99851.31;5032922;28;20188;-71
2024/02/26 00:59:25;;;;;;;7.90;4.97;;;;;;;3.24;100.00;99948.19;5015467;28;20248;-71
2024/02/26 01:01:52;;;;;;;9.50;5.60;;;;;;;3.20;100.00;99986.66;5029947;28;20649;-72
2024/02/26 01:04:18;;;;;;;11.90;5.27;;;;;;;2.62;100.00;99894.13;5036674;28;20242;-71
2024/02/26 01:06:43;;;;;;;8.27;5.40;;;;;;;3.32;100.00;99991.38;5036016;28;20927;-71
2024/02/26 01:09:11;;;;;;;9.77;5.50;;;;;;;2.81;100.00;99886.81;5029155;28;20756;-72
2024/02/26 01:11:36;;;;;;;9.10;5.40;;;;;;;2.79;100.00;99881.66;5012792;28;20196;-72
2024/02/26 01:14:03;;;;;;;7.40;4.60;;;;;;;3.44;100.00;99981.22;5034674;28;20428;-72
2024/02/26 01:16:29;;;;;;;7.30;4.70;;;;;;;3.60;100.00;99996.25;5018310;28;20237;-72
2024/02/26 01:18:54;;;;;;;8.13;4.60;;;;;;;3.66;100.00;99995.53;5023612;28;20474;-72
2024/02/26 01:21:20;;;;;;;7.80;4.60;;;;;;;3.66;100.00;99990.25;5018621;28;20562;-72
2024/02/26 01:23:45;;;;;;;6.77;4.20;;;;;;;2.89;100.00;99877.00;5033819;28;20195;-72
2024/02/26 01:26:11;;;;;;;8.70;4.83;;;;;;;3.55;100.00;99972.88;5033109;28;20192;-71
2024/02/26 01:28:36;;;;;;;7.50;4.57;;;;;;;2.89;100.00;99869.06;5017982;28;20215;-72
2024/02/26 01:31:05;;;;;;;6.30;3.87;;;;;;;2.83;100.00;99860.97;5029760;28;20199;-71
2024/02/26 01:33:30;;;;;;;7.63;4.10;;;;;;;3.48;100.00;99949.91;5021127;28;20558;-72
2024/02/26 01:35:55;;;;;;;8.37;4.20;;;;;;;3.22;100.00;99905.16;5035609;28;20426;-71
2024/02/26 01:38:21;;;;;;;8.50;4.13;;;;;;;3.43;100.00;99947.78;5040714;28;20204;-71
2024/02/26 01:40:46;;;;;;;7.47;3.93;;;;;;;2.44;100.00;99777.06;5014495;28;20189;-71
2024/02/26 01:43:12;;;;;;;7.60;3.50;;;;;;;2.56;100.00;99831.28;5018575;28;20196;-72
2024/02/26 01:45:37;;;;;;;6.73;3.60;;;;;;;2.12;100.00;99756.88;5030411;28;20250;-73
2024/02/26 01:48:03;;;;;;;6.60;4.07;;;;;;;3.05;100.00;99883.22;5033675;28;20255;-72
2024/02/26 01:50:28;;;;;;;6.50;3.93;;;;;;;3.19;100.00;99919.59;5033633;28;20192;-71
2024/02/26 01:52:55;;;;;;;7.13;4.30;;;;;;;2.57;100.00;99814.41;5031818;28;20199;-71
2024/02/26 01:55:23;;;;;;;6.90;4.50;;;;;;;3.23;100.00;99901.50;5024525;28;20641;-72
2024/02/26 01:57:51;;;;;;;6.10;3.17;;;;;;;2.84;100.00;99807.84;5018280;28;20543;-71
2024/02/26 02:00:18;;;;;;;5.70;3.40;;;;;;;2.80;100.00;99773.91;5017492;28;20965;-72
2024/02/26 02:02:46;;;;;;;6.97;3.60;;;;;;;3.54;100.00;99901.50;5019804;28;20438;-71
2024/02/26 02:05:14;;;;;;;6.30;4.10;;;;;;;2.63;100.00;99778.47;5014723;28;20423;-72
2024/02/26 02:07:40;;;;;;;6.10;3.27;;;;;;;2.59;100.00;99815.06;5018564;28;20454;-71
2024/02/26 02:10:06;;;;;;;7.30;3.73;;;;;;;2.44;100.00;99761.19;5018578;28;20521;-71
2024/02/26 02:12:34;;;;;;;5.67;3.13;;;;;;;3.23;100.00;99923.53;5041514;28;20919;-71
2024/02/26 02:15:00;;;;;;;6.20;3.57;;;;;;;2.53;100.00;99797.22;5016290;28;20740;-72
2024/02/26 02:17:27;;;;;;;6.50;3.70;;;;;;;2.99;100.00;99862.72;5036364;28;20478;-71
2024/02/26 02:19:53;;;;;;;6.40;3.20;;;;;;;3.25;100.00;99918.88;5031668;28;20518;-71
2024/02/26 02:22:18;;;;;;;6.53;3.50;;;;;;;2.23;100.00;99752.03;5038076;28;20467;-71
2024/02/26 02:24:44;;;;;;;6.40;3.20;;;;;;;2.14;100.00;99758.34;5031681;28;20206;-71
2024/02/26 02:27:10;;;;;;;5.80;3.13;;;;;;;2.47;100.00;99816.44;5015633;28;20179;-72
2024/02/26 02:29:36;;;;;;;5.50;2.80;;;;;;;2.99;100.00;99874.13;5030095;28;20877;-72
2024/02/26 02:32:03;;;;;;;5.63;3.30;;;;;;;2.46;100.00;99801.56;5013502;28;20193;-72
2024/02/26 02:34:29;;;;;;;5.53;2.90;;;;;;;2.29;100.00;99800.78;5028669;28;20480;-71
2024/02/26 02:36:54;;;;;;;5.37;2.50;;;;;;;2.53;100.00;99812.28;5025411;28;20537;-71
2024/02/26 02:39:21;;;;;;;4.87;2.40;;;;;;;2.72;100.00;99772.97;5015674;28;20608;-71
2024/02/26 02:41:46;;;;;;;6.97;2.50;;;;;;;3.67;100.00;99912.31;5030634;28;20447;-71
2024/02/26 02:44:12;;;;;;;5.20;2.47;;;;;;;2.41;100.00;99696.19;5013664;28;21021;-72
2024/02/26 02:46:40;;;;;;;6.20;2.60;;;;;;;3.02;100.00;99790.84;5024491;28;20185;-72
2024/02/26 02:49:12;;;;;;;6.10;2.30;;;;;;;3.17;100.00;99828.81;5023999;28;20727;-71
2024/02/26 02:51:37;;;;;;;5.20;2.50;;;;;;;2.44;100.00;99755.91;5026941;28;20526;-71
2024/02/26 02:54:03;;;;;;;4.80;2.37;;;;;;;3.09;100.00;99861.47;5006583;28;20528;-72
2024/02/26 02:56:29;;;;;;;6.27;2.50;;;;;;;3.06;100.00;99837.16;5031613;28;20219;-72
2024/02/26 02:58:54;;;;;;;5.03;2.47;;;;;;;3.39;100.00;99867.78;5029888;28;20220;-71
2024/02/26 03:01:20;;;;;;;4.77;2.27;;;;;;;3.22;100.00;99860.13;5030468;28;20189;-71
2024/02/26 03:03:45;;;;;;;5.63;2.90;;;;;;;2.39;100.00;99723.84;5014806;28;20239;-71
2024/02/26 03:06:10;;;;;;;5.30;2.80;;;;;;;2.14;100.00;99678.13;5031383;28;20272;-72
2024/02/26 03:08:41;;;;;;;5.30;2.60;;;;;;;2.34;100.00;99719.03;5033373;28;20210;-72
2024/02/26 03:11:07;;;;;;;5.47;2.40;;;;;;;2.38;100.00;99733.59;5018044;28;20284;-71
2024/02/26 03:13:32;;;;;;;5.20;2.37;;;;;;;2.68;100.00;99747.81;5028744;28;20518;-71
2024/02/26 03:15:57;;;;;;;5.57;2.50;;;;;;;2.93;100.00;99784.78;5009051;28;20197;-71
2024/02/26 03:18:23;;;;;;;5.83;2.33;;;;;;;2.20;100.00;99693.34;5028433;28;20212;-71
2024/02/26 03:20:49;;;;;;;5.90;2.40;;;;;;;1.88;100.00;99689.84;5012544;28;20234;-71
2024/02/26 03:23:16;;;;;;;5.90;2.90;;;;;;;2.88;100.00;99840.09;5034428;28;20199;-72
2024/02/26 03:25:48;;;;;;;6.50;2.63;;;;;;;2.59;100.00;99771.88;5019176;28;20468;-72
2024/02/26 03:28:13;;;;;;;9.40;2.97;;;;;;;2.38;100.00;99772.47;5011645;28;21018;-72
2024/02/26 03:30:39;;;;;;;5.93;2.40;;;;;;;3.06;100.00;99893.63;5025546;28;20475;-72
2024/02/26 03:33:04;;;;;;;5.00;2.80;;;;;;;2.54;100.00;99833.28;5010987;28;20188;-72
2024/02/26 03:35:30;;;;;;;5.27;2.30;;;;;;;2.09;100.00;99749.28;5013050;28;20212;-72
2024/02/26 03:37:55;;;;;;;5.23;2.27;;;;;;;2.09;100.00;99751.91;5033474;28;20221;-71
2024/02/26 03:40:21;;;;;;;6.63;2.53;;;;;;;2.15;100.00;99775.03;5033845;28;20677;-72
2024/02/26 03:42:46;;;;;;;5.77;2.40;;;;;;;2.35;100.00;99807.22;5026875;28;20318;-72
2024/02/26 03:45:12;;;;;;;6.47;2.67;;;;;;;2.92;100.00;99897.84;5037496;28;20183;-71
2024/02/26 03:47:39;;;;;;;6.33;2.40;;;;;;;2.93;100.00;99902.13;5027491;28;20594;-71
2024/02/26 03:50:06;;;;;;;5.40;2.50;;;;;;;2.15;100.00;99780.31;5015985;28;20187;-71
2024/02/26 03:52:32;;;;;;;6.27;2.77;;;;;;;2.84;100.00;99913.78;5036736;28;20430;-71
2024/02/26 03:54:58;;;;;;;5.07;2.43;;;;;;;2.30;100.00;99794.50;5018646;28;20443;-72
2024/02/26 03:57:23;;;;;;;6.80;2.80;;;;;;;3.08;100.00;99926.09;5014779;28;20442;-72
2024/02/26 03:59:49;;;;;;;5.97;2.67;;;;;;;3.00;100.00;99867.81;5014309;28;20629;-71
2024/02/26 04:02:14;;;;;;;6.80;3.03;;;;;;;2.55;100.00;99789.13;5012079;28;20196;-72
2024/02/26 04:04:40;;;;;;;7.27;3.10;;;;;;;2.38;100.00;99733.59;5031586;28;20207;-72
2024/02/26 04:07:05;;;;;;;6.27;2.50;;;;;;;2.85;100.00;99822.72;5031417;28;20687;-72
2024/02/26 04:09:33;;;;;;;7.00;2.93;;;;;;;2.96;100.00;99804.78;5011916;28;20201;-72
2024/02/26 04:11:59;;;;;;;7.33;2.87;;;;;;;2.29;100.00;99723.22;5039648;28;20184;-71
2024/02/26 04:14:24;;;;;;;4.80;2.20;;;;;;;2.83;100.00;99720.59;5035288;28;21219;-71
2024/02/26 04:16:52;;;;;;;6.47;2.77;;;;;;;2.76;100.00;99704.59;5011605;28;20192;-71
2024/02/26 04:19:17;;;;;;;5.40;2.20;;;;;;;3.45;100.00;99799.16;5009612;28;20227;-72
2024/02/26 04:21:43;;;;;;;6.30;2.50;;;;;;;3.47;100.00;99790.03;5022523;28;20439;-72
2024/02/26 04:24:08;;;;;;;6.10;2.60;;;;;;;2.90;100.00;99714.44;5032529;28;20438;-72
2024/02/26 04:26:34;;;;;;;4.90;2.00;;;;;;;3.39;100.00;99849.22;5024680;28;20210;-72
2024/02/26 04:29:00;;;;;;;5.73;2.53;;;;;;;2.80;100.00;99731.53;5022360;28;20204;-72
2024/02/26 04:31:30;;;;;;;5.70;2.23;;;;;;;2.00;100.00;99611.75;5047034;22;20871;-78
2024/02/26 04:33:55;;;;;;;4.77;2.30;;;;;;;1.13;100.00;99458.53;5042245;28;20250;-78
2024/02/26 04:36:21;;;;;;;6.33;2.30;;;;;;;1.33;100.00;99489.81;5025700;28;20810;-78
2024/02/26 04:38:47;;;;;;;5.53;2.37;;;;;;;1.05;100.00;99463.84;5018522;28;20212;-78
2024/02/26 04:41:12;;;;;;;4.80;2.00;;;;;;;2.00;100.00;99576.56;5033999;28;20456;-78
2024/02/26 04:43:42;;;;;;;5.07;2.23;;;;;;;2.58;100.00;99675.75;5041183;28;20654;-78
2024/02/26 04:46:10;;;;;;;5.70;2.40;;;;;;;1.79;100.00;99548.91;5028910;28;20190;-78
2024/02/26 04:48:38;;;;;;;6.97;2.10;;;;;;;2.53;100.00;99664.84;5005560;28;20460;-78
2024/02/26 04:51:03;;;;;;;5.30;1.90;;;;;;;1.26;100.00;99499.44;5027152;28;20758;-77
2024/02/26 04:53:29;;;;;;;4.60;1.90;;;;;;;1.39;100.00;99507.63;5018953;28;20446;-78
2024/02/26 04:55:55;;;;;;;6.60;2.40;;;;;;;1.91;100.00;99578.41;5028094;28;20948;-78
2024/02/26 04:58:20;;;;;;;4.63;2.00;;;;;;;0.24;100.00;99435.03;5012871;28;20208;-78
2024/02/26 05:00:46;;;;;;;7.60;2.80;;;;;;;1.96;100.00;99644.00;5007360;28;20189;-78
2024/02/26 05:03:15;;;;;;;4.67;1.90;;;;;;;1.11;100.00;99510.69;5029596;28;20199;-78
2024/02/26 05:05:42;;;;;;;5.97;1.80;;;;;;;1.94;100.00;99595.72;5013301;28;20641;-78
2024/02/26 05:08:08;;;;;;;5.17;2.00;;;;;;;1.33;100.00;99505.66;5011885;28;20545;-78
2024/02/26 05:10:34;;;;;;;4.50;1.90;;;;;;;1.20;100.00;99540.56;5024031;28;20535;-78
2024/02/26 05:13:00;;;;;;;5.60;2.00;;;;;;;0.90;100.00;99449.72;5030548;28;20195;-78
2024/02/26 05:15:25;;;;;;;4.40;1.70;;;;;;;1.17;100.00;99545.34;5033471;28;20430;-78
2024/02/26 05:17:53;;;;;;;4.73;1.87;;;;;;;0.96;100.00;99451.69;5028950;28;20236;-78
2024/02/26 05:20:18;;;;;;;5.40;1.73;;;;;;;1.54;100.00;99531.50;5028240;28;20215;-78
2024/02/26 05:22:44;;;;;;;5.90;2.13;;;;;;;2.64;100.00;99679.53;5036447;28;20430;-78
2024/02/26 05:25:09;;;;;;;5.00;1.87;;;;;;;0.98;100.00;99499.03;5031117;28;20568;-79
2024/02/26 05:27:35;;;;;;;4.47;1.77;;;;;;;1.26;100.00;99533.78;5030161;28;20251;-78
2024/02/26 05:30:00;;;;;;;5.60;1.97;;;;;;;1.25;100.00;99493.31;5029910;28;20645;-78
2024/02/26 05:32:26;;;;;;;4.30;1.60;;;;;;;0.99;100.00;99458.44;5027389;28;21750;-77
2024/02/26 05:34:51;;;;;;;4.63;2.03;;;;;;;0.88;100.00;99373.31;5026708;28;20181;-78
2024/02/26 05:37:17;;;;;;;4.90;1.80;;;;;;;2.52;100.00;99700.28;5032722;28;20187;-78
2024/02/26 05:39:42;;;;;;;5.73;1.87;;;;;;;2.23;100.00;99622.38;5025989;28;20258;-78
2024/02/26 05:42:08;;;;;;;5.73;1.73;;;;;;;2.73;100.00;99781.72;5022825;28;20191;-78
2024/02/26 05:44:34;;;;;;;4.20;1.67;;;;;;;1.04;100.00;99507.09;5027828;28;20191;-78
2024/02/26 05:46:59;;;;;;;5.07;2.20;;;;;;;1.43;100.00;99621.72;5023054;28;20434;-78
2024/02/26 05:49:25;;;;;;;4.40;1.80;;;;;;;3.38;100.00;99908.56;5015093;28;20204;-77
2024/02/26 05:51:50;;;;;;;5.20;2.07;;;;;;;2.27;100.00;99736.63;5025145;28;20196;-78
2024/02/26 05:54:16;;;;;;;4.63;1.70;;;;;;;0.76;100.00;99527.78;5020432;28;20189;-78
2024/02/26 05:56:42;;;;;;;4.90;1.90;;;;;;;1.27;100.00;99596.16;5016407;28;20429;-77
2024/02/26 05:59:08;;;;;;;4.60;1.77;;;;;;;1.68;100.00;99602.16;5029025;28;20474;-77
2024/02/26 06:01:33;;;;;;;4.50;2.00;;;;;;;1.47;100.00;99615.09;5030125;28;20939;-77
2024/02/26 06:03:59;;;;;;;4.70;1.57;;;;;;;2.35;100.00;99839.81;5026071;28;20197;-76
2024/02/26 06:06:25;;;;;;;4.57;1.83;;;;;;;1.87;100.00;99748.97;5028676;28;20192;-77
2024/02/26 06:08:50;;;;;;;4.53;1.57;;;;;;;1.84;100.00;99722.88;5033115;28;20197;-78
2024/02/26 06:11:18;;;;;;;5.10;1.80;;;;;;;1.37;100.00;99689.28;5027947;28;20192;-78
2024/02/26 06:13:44;;;;;;;4.40;1.90;;;;;;;0.99;100.00;99657.28;4995953;28;21766;-78
2024/02/26 06:16:10;;;;;;;4.57;1.80;;;;;;;0.58;100.00;99564.94;5026179;28;20442;-78
2024/02/26 06:18:38;;;;;;;4.70;1.80;;;;;;;1.67;100.00;99708.88;5028980;28;20215;-78
2024/02/26 06:21:03;;;;;;;4.30;1.70;;;;;;;1.65;100.00;99704.75;5027335;28;20185;-78
2024/02/26 06:23:29;;;;;;;4.77;2.00;;;;;;;0.80;100.00;99612.75;5036837;28;20929;-78
2024/02/26 06:25:54;;;;;;;5.23;2.00;;;;;;;1.70;100.00;99699.78;5035315;28;20780;-78
2024/02/26 06:28:20;;;;;;;5.53;1.90;;;;;;;0.64;100.00;99566.06;5032752;28;20204;-78
2024/02/26 06:30:46;;;;;;;5.00;1.73;;;;;;;2.43;100.00;99860.09;5025420;28;20192;-78
2024/02/26 06:33:12;;;;;;;5.70;2.10;;;;;;;1.08;100.00;99640.44;5030122;28;20187;-78
2024/02/26 06:35:38;;;;;;;4.70;2.00;;;;;;;1.60;100.00;99820.75;5029902;28;20445;-78
2024/02/26 06:38:04;;;;;;;5.20;2.17;;;;;;;1.25;100.00;99759.31;5037419;28;20495;-78
2024/02/26 06:40:29;;;;;;;4.60;2.00;;;;;;;2.47;100.00;99948.78;5021288;28;20235;-78
2024/02/26 06:42:55;;;;;;;5.23;2.30;;;;;;;0.54;100.00;99570.69;5012437;28;20471;-78
2024/02/26 06:45:20;;;;;;;4.70;1.93;;;;;;;2.58;100.00;99937.03;5037054;28;20246;-78
2024/02/26 06:47:48;;;;;;;9.77;2.10;;;;;;;1.08;100.00;99775.13;5033096;28;20265;-78
2024/02/26 06:50:14;;;;;;;4.70;2.00;;;;;;;2.78;100.00;99985.97;5034574;28;20211;-78
2024/02/26 06:52:40;;;;;;;5.10;2.20;;;;;;;1.24;100.00;99695.06;5027767;28;20475;-78
2024/02/26 06:55:08;;;;;;;5.27;2.10;;;;;;;1.45;100.00;99731.56;5035909;28;20219;-78
2024/02/26 06:57:33;;;;;;;4.30;1.93;;;;;;;1.07;100.00;99768.22;5030812;28;20758;-78
2024/02/26 06:59:59;;;;;;;6.47;2.17;;;;;;;2.10;100.00;99868.13;5039711;28;20550;-78
2024/02/26 07:02:24;;;;;;;4.87;1.87;;;;;;;1.59;100.00;99780.25;5035656;28;20677;-78
2024/02/26 07:04:52;;;;;;;4.57;2.00;;;;;;;2.75;100.00;100044.56;5032974;28;20797;-78
2024/02/26 07:07:18;;;;;;;4.60;2.07;;;;;;;1.70;100.00;99853.94;5016996;28;20188;-78
2024/02/26 07:09:44;;;;;;;5.80;2.20;;;;;;;1.91;100.00;99853.44;5029307;28;20450;-78
2024/02/26 07:12:09;;;;;;;4.80;2.10;;;;;;;2.05;100.00;99875.72;5027638;28;20843;-78
2024/02/26 07:14:37;;;;;;;5.70;2.30;;;;;;;1.88;100.00;99831.78;5031973;28;20791;-78
2024/02/26 07:17:03;;;;;;;4.70;2.40;;;;;;;1.05;100.00;99720.00;5035163;28;20601;-78
2024/02/26 07:19:28;;;;;;;5.27;2.13;;;;;;;2.11;100.00;99888.31;5028666;28;20479;-78
2024/02/26 07:21:54;;;;;;;4.77;2.20;;;;;;;1.87;100.00;99823.03;5012187;28;20185;-78
2024/02/26 07:24:19;;;;;;;5.17;2.10;;;;;;;1.77;100.00;99817.09;5028207;28;20553;-78
2024/02/26 07:26:44;;;;;;;5.53;2.10;;;;;;;2.98;100.00;99989.06;5033198;28;20217;-77
2024/02/26 07:29:12;;;;;;;4.83;2.00;;;;;;;2.18;100.00;99758.81;5038598;28;20757;-78
2024/02/26 07:31:38;;;;;;;8.70;2.07;;;;;;;3.36;100.00;100031.66;5033036;28;20192;-78
2024/02/26 07:34:03;;;;;;;5.60;2.20;;;;;;;2.28;100.00;99772.66;5013614;28;20423;-77
2024/02/26 07:36:29;;;;;;;4.40;1.90;;;;;;;1.33;100.00;99669.47;5031269;28;20219;-77
2024/02/26 07:38:57;;;;;;;5.60;2.20;;;;;;;2.03;100.00;99791.28;5033162;28;20216;-78
2024/02/26 07:41:22;;;;;;;6.10;2.03;;;;;;;1.89;100.00;99699.41;5034357;28;20259;-78
2024/02/26 07:43:48;;;;;;;5.87;1.70;;;;;;;2.34;100.00;99719.03;5011954;28;20432;-77
2024/02/26 07:46:14;;;;;;;4.90;1.93;;;;;;;2.01;100.00;99612.56;5030670;28;20241;-78
2024/02/26 07:48:42;;;;;;;5.80;2.17;;;;;;;1.10;100.00;99548.69;5014365;28;20451;-78
2024/02/26 07:51:07;;;;;;;4.67;1.80;;;;;;;3.54;100.00;99967.78;5027208;28;20185;-77
2024/02/26 07:53:33;;;;;;;6.43;2.13;;;;;;;2.30;100.00;99730.97;5015200;28;20469;-77
2024/02/26 07:55:58;;;;;;;5.63;1.80;;;;;;;2.84;100.00;99796.41;5034261;28;20191;-78
2024/02/26 07:58:24;;;;;;;5.10;2.00;;;;;;;1.07;100.00;99442.53;5017835;28;20213;-78
2024/02/26 08:00:49;;;;;;;6.93;1.80;;;;;;;2.44;100.00;99674.69;5030238;28;20634;-78
2024/02/26 08:03:15;;;;;;;5.10;2.33;;;;;;;3.65;100.00;99848.03;5029666;28;20212;-78
2024/02/26 08:05:43;;;;;;;4.50;1.90;;;;;;;2.58;100.00;99696.13;5017106;28;20180;-78
2024/02/26 08:08:08;;;;;;;4.50;1.80;;;;;;;2.66;100.00;99698.69;5031938;28;21030;-77
2024/02/26 08:10:34;;;;;;;7.03;2.43;;;;;;;3.19;100.00;99869.22;5031501;28;20427;-78
2024/02/26 08:13:05;;;;;;;5.43;2.00;;;;;;;3.04;100.00;99839.16;5029561;28;20655;-78
2024/02/26 08:15:39;;;;;;;6.20;2.27;;;;;;;3.04;100.00;99813.50;5027070;28;20184;-78
2024/02/26 08:18:05;;;;;;;6.00;1.97;;;;;;;3.45;100.00;99860.94;5023487;28;20466;-77
2024/02/26 08:20:31;;;;;;;5.00;2.27;;;;;;;2.21;100.00;99724.91;5026298;28;20467;-77
2024/02/26 08:22:56;;;;;;;5.10;1.90;;;;;;;1.92;100.00;99646.16;5025972;28;20876;-77
2024/02/26 08:25:23;;;;;;;5.70;2.13;;;;;;;3.07;100.00;99844.97;5027460;28;20450;-78
2024/02/26 08:27:48;;;;;;;5.53;2.50;;;;;;;2.13;100.00;99690.53;5025465;28;20677;-78
2024/02/26 08:30:16;;;;;;;4.73;2.10;;;;;;;2.07;100.00;99626.94;5011286;28;20442;-77
2024/02/26 08:32:43;;;;;;;6.10;2.60;;;;;;;1.86;100.00;99548.22;5026513;28;20196;-77
2024/02/26 08:35:08;;;;;;;4.80;1.90;;;;;;;1.76;100.00;99467.28;5023175;28;20475;-78
2024/02/26 08:37:34;;;;;;;7.03;2.43;;;;;;;2.42;100.00;99623.72;5027528;28;20556;-77
2024/02/26 08:39:59;;;;;;;5.80;2.10;;;;;;;2.98;100.00;99604.94;5007699;28;20216;-78
2024/02/26 08:42:25;;;;;;;6.63;2.67;;;;;;;2.58;100.00;99494.94;5028054;28;20642;-78
2024/02/26 08:44:50;;;;;;;5.27;2.17;;;;;;;1.33;100.00;99318.09;5031075;28;20189;-77
2024/02/26 08:47:16;;;;;;;4.77;2.00;;;;;;;2.63;100.00;99503.13;5032012;28;20549;-78
2024/02/26 08:49:45;;;;;;;4.63;1.97;;;;;;;2.84;100.00;99407.94;5022050;28;20187;-77
2024/02/26 08:52:11;;;;;;;5.70;2.17;;;;;;;2.15;100.00;99261.84;5009731;28;20195;-78
2024/02/26 08:54:36;;;;;;;5.80;2.27;;;;;;;2.39;100.00;99325.03;5028112;28;20440;-77
2024/02/26 08:57:02;;;;;;;5.00;2.40;;;;;;;2.44;100.00;99306.81;5028858;28;20235;-77
2024/02/26 08:59:28;;;;;;;7.00;1.90;;;;;;;1.91;100.00;99159.78;5006984;28;20252;-77
2024/02/26 09:01:53;;;;;;;5.00;1.63;;;;;;;2.79;100.00;99296.44;5025469;28;20542;-78
2024/02/26 09:04:19;;;;;;;6.10;2.23;;;;;;;3.69;100.00;99453.34;5031198;28;20195;-77
2024/02/26 09:06:44;;;;;;;5.43;2.13;;;;;;;3.17;100.00;99424.22;5029023;28;20215;-77
2024/02/26 09:09:10;;;;;;;5.33;2.07;;;;;;;2.51;100.00;99261.06;5024213;28;20204;-77
2024/02/26 09:11:36;;;;;;;6.17;2.60;;;;;;;3.15;100.00;99287.63;5018369;28;20189;-77
2024/02/26 09:14:03;;;;;;;5.10;2.40;;;;;;;2.78;100.00;99173.00;5022744;28;20947;-77
2024/02/26 09:16:29;;;;;;;6.40;2.37;;;;;;;2.24;100.00;99036.69;5010178;28;20188;-77
2024/02/26 09:18:54;;;;;;;5.70;2.20;;;;;;;4.53;100.00;99376.47;5027858;28;20464;-77
2024/02/26 09:21:23;;;;;;;4.47;1.83;;;;;;;3.24;100.00;99177.88;5027196;28;20188;-77
2024/02/26 09:23:52;;;;;;;5.23;2.27;;;;;;;4.01;100.00;99306.13;5024610;28;20185;-77
2024/02/26 09:26:18;;;;;;;5.23;2.13;;;;;;;3.94;100.00;99265.47;5013441;28;20448;-77
2024/02/26 09:28:44;;;;;;;4.93;2.23;;;;;;;3.64;100.00;99247.09;5008953;28;20512;-77
2024/02/26 09:31:10;;;;;;;5.30;2.57;;;;;;;3.97;100.00;99247.34;5025607;28;20461;-77
2024/02/26 09:33:35;;;;;;;5.17;1.97;;;;;;;2.67;100.00;99102.03;5025016;28;20939;-77
2024/02/26 09:36:01;;;;;;;6.60;2.47;;;;;;;3.80;100.00;99262.72;5032315;28;20196;-77
2024/02/26 09:38:27;;;;;;;5.27;2.43;;;;;;;2.53;100.00;99015.56;5027351;28;20216;-77
2024/02/26 09:40:53;;;;;;;4.90;1.97;;;;;;;3.28;100.00;99135.91;5029745;28;20219;-77
2024/02/26 09:43:23;;;;;;;5.37;2.10;;;;;;;2.28;100.00;98964.88;5024125;28;20443;-77
2024/02/26 09:45:50;;;;;;;4.90;1.70;;;;;;;2.52;100.00;99006.81;5019977;28;20452;-77
2024/02/26 09:48:17;;;;;;;5.20;2.10;;;;;;;2.56;100.00;98981.59;5010573;28;20880;-78
2024/02/26 09:50:43;;;;;;;4.93;2.13;;;;;;;4.62;100.00;99310.75;5011242;28;20447;-77
2024/02/26 09:53:12;;;;;;;5.70;2.23;;;;;;;3.24;100.00;99093.09;5031373;28;20443;-77
2024/02/26 09:55:37;;;;;;;6.23;2.03;;;;;;;3.31;100.00;99130.22;5022412;28;20582;-77
2024/02/26 09:58:05;;;;;;;6.03;2.20;;;;;;;3.60;100.00;99172.41;5027222;28;20467;-77
2024/02/26 10:00:34;;;;;;;5.50;2.30;;;;;;;3.67;100.00;99169.00;5026268;28;20737;-77
2024/02/26 10:03:03;;;;;;;6.00;2.23;;;;;;;2.48;100.00;98944.69;5028577;28;20435;-77
2024/02/26 10:05:29;;;;;;;5.47;2.00;;;;;;;3.43;100.00;99147.22;5025489;28;20497;-78
2024/02/26 10:07:57;;;;;;;4.83;1.50;;;;;;;4.10;100.00;99259.03;5007838;28;20463;-77
2024/02/26 10:10:23;;;;;;;7.00;1.73;;;;;;;3.50;100.00;99176.41;5026311;28;20911;-77
2024/02/26 10:12:49;;;;;;;4.97;1.97;;;;;;;4.29;100.00;99266.28;5025130;28;20443;-77
2024/02/26 10:15:15;;;;;;;4.57;1.67;;;;;;;4.20;100.00;99294.00;5011085;28;20499;-77
2024/02/26 10:17:41;;;;;;;4.30;1.60;;;;;;;3.20;100.00;99150.13;5027874;28;20965;-77
2024/02/26 10:20:17;;;;;;;4.83;1.73;;;;;;;5.60;100.00;99555.94;5023478;28;20474;-77
2024/02/26 10:22:44;;;;;;;5.10;1.70;;;;;;;3.18;100.00;99173.34;5026532;28;20487;-77
2024/02/26 10:25:09;;;;;;;4.70;1.70;;;;;;;4.74;100.00;99495.94;5028396;28;20530;-77
2024/02/26 10:27:35;;;;;;;4.67;1.50;;;;;;;4.64;100.00;99495.47;5028206;28;20648;-77
2024/02/26 10:30:15;;;;;;;5.30;1.90;;;;;;;4.74;100.00;99408.28;5009940;28;20719;-77
2024/02/26 10:32:43;;;;;;;4.97;1.50;;;;;;;4.54;100.00;99444.50;5041592;22;20490;-73
2024/02/26 10:35:13;;;;;;;4.87;1.50;;;;;;;3.43;100.00;99224.09;5014959;28;20965;-74
2024/02/26 10:37:42;;;;;;;5.60;2.13;;;;;;;4.28;100.00;99398.19;5032379;28;20445;-73
2024/02/26 10:40:11;;;;;;;4.60;1.60;;;;;;;3.89;100.00;99305.84;5029638;28;20478;-73
2024/02/26 10:42:38;;;;;;;4.97;1.70;;;;;;;4.44;100.00;99386.44;5034685;28;20534;-73
2024/02/26 10:45:05;;;;;;;4.80;1.90;;;;;;;3.76;100.00;99343.69;5029863;28;20439;-74
2024/02/26 10:47:33;;;;;;;4.73;1.70;;;;;;;3.07;100.00;99195.88;5020445;28;21570;-73
2024/02/26 10:49:59;;;;;;;6.30;2.17;;;;;;;4.10;100.00;99379.25;5016911;28;20446;-73
2024/02/26 10:52:30;;;;;;;5.00;2.10;;;;;;;4.20;100.00;99373.63;5040356;28;20455;-73
2024/02/26 10:54:57;;;;;;;4.87;2.00;;;;;;;5.07;100.00;99526.41;5028573;28;21112;-73
2024/02/26 10:57:24;;;;;;;6.43;2.10;;;;;;;4.24;100.00;99346.50;5029736;28;20548;-74
2024/02/26 10:59:51;;;;;;;6.00;2.03;;;;;;;4.69;100.00;99429.31;5031993;28;20466;-73
2024/02/26 11:02:17;;;;;;;6.73;2.50;;;;;;;4.71;100.00;99429.91;5032570;28;20435;-74
2024/02/26 11:04:44;;;;;;;6.10;2.67;;;;;;;3.84;100.00;99260.50;5034865;28;20423;-75
2024/02/26 11:07:10;;;;;;;5.43;2.60;;;;;;;3.70;100.00;99233.06;5027504;28;20482;-74
2024/02/26 11:09:46;;;;;;;;;;;;;;;;;;;;;
2024/02/26 11:12:16;;;;;;;5.47;2.50;;;;;;;3.93;100.00;99295.66;5039027;28;20927;-74
2024/02/26 11:14:44;;;;;;;6.50;3.23;;;;;;;4.68;100.00;99416.19;5037999;28;20435;-74
2024/02/26 11:17:12;;;;;;;8.83;3.50;;;;;;;3.93;100.00;99340.75;5026293;28;20454;-74
2024/02/26 11:19:39;;;;;;;7.27;3.77;;;;;;;5.11;100.00;99507.19;5040665;28;20466;-74
2024/02/26 11:22:05;;;;;;;7.43;3.73;;;;;;;3.92;100.00;99393.00;5012590;28;21006;-75
2024/02/26 11:24:31;;;;;;;9.80;4.40;;;;;;;4.52;100.00;99473.09;5038815;28;20445;-74
2024/02/26 11:27:02;;;;;;;6.87;3.97;;;;;;;4.24;100.00;99407.53;5036113;28;20227;-74
2024/02/26 11:29:34;;;;;;;7.47;3.80;;;;;;;4.07;100.00;99353.91;5032966;28;20490;-74